Latest Coastal Weather Observations for Gabo Island

IDV60701

Issued at 7:45 am EST Wednesday 3 September 2014 (issued every 10 minutes, with the page automatically refreshed every 10 minutes)

About coastal observations | Map of coastal stations | Coastal observations for VIC | Marine services | Other Formats
Station Details ID: 084016 Name: GABO ISLAND LIGHTHOUSE Lat: -37.57 Lon: 149.92 Height: 15.2 m
Data from the previous 72 hours. | See also: Recent months at Gabo Island
Date/Time
EST
Temp

°C
Wind Pressure Rain
since 9am
mm
Weather Cloud Vis
km
Sea
Height
m
Swell
Dir
 
Speed
knots
Gust
knots
hPa Trend Height
m
Period
s
Dir
03/07:30am 12.2 SSW 32 38 1017.0 - 15.8 - - - - - - -
03/07:00am 12.2 SSW 28 37 1016.8 - 15.8 - - - - - - -
03/06:32am 11.3 S 33 43 1016.7 - 15.8 - - - - - - -
03/06:30am 11.4 S 34 43 1016.7 - 15.8 - - - - - - -
03/06:14am 12.7 SSW 33 43 1016.3 - 15.8 - - - - - - -
03/06:00am 12.5 SSW 33 40 1016.2 - 15.8 - - - - - - -
03/05:45am 12.2 SSW 32 43 1016.0 - 15.8 - - - - - - -
03/05:30am 12.3 SSW 31 38 1015.9 - 15.8 - - - - - - -
03/05:09am 11.9 S 32 43 1016.0 - 15.8 - - - - - - -
03/05:00am 11.6 S 33 40 1015.9 - 15.8 - - - - - - -
03/04:44am 11.1 S 32 42 1015.8 - 15.8 - - - - - - -
03/04:30am 11.9 S 33 42 1015.6 - 15.8 - - - - - - -
03/04:00am 11.4 S 33 41 1015.3 - 15.8 - - - - - - -
03/03:53am 11.7 S 28 38 1015.3 - 15.8 - - - - - - -
03/03:30am 11.3 S 29 35 1015.5 - 15.4 - - - - - - -
03/03:17am 11.8 S 29 46 1015.2 - 15.4 - - - - - - -
03/03:00am 12.4 SSW 30 36 1015.0 - 15.4 - - - - - - -
03/02:30am 12.0 SW 32 39 1015.0 - 15.4 - - - - - - -
03/02:00am 11.8 SSW 35 42 1015.5 - 15.4 - - - - - - -
03/01:59am 11.8 SW 35 44 1015.5 - 15.4 - - - - - - -
03/01:30am 12.5 S 34 41 1015.5 - 15.4 - - - - - - -
03/01:00am 12.8 SSW 35 41 1015.3 - 15.4 - - - - - - -
03/12:30am 12.8 SSW 33 41 1015.3 - 15.4 - - - - - - -
03/12:00am 12.7 SSW 34 41 1015.4 - 15.4 - - - - - - -
 
Date/Time
EST
Temp

°C
Wind Pressure Rain
since 9am
mm
Weather Cloud Vis
km
Sea
Height
m
Swell
Dir
 
Speed
knots
Gust
knots
hPa Trend Height
m
Period
s
Dir
02/11:32pm 12.2 S 31 41 1015.5 - 15.4 - - - - - - -
02/11:30pm 12.3 S 30 38 1015.5 - 15.4 - - - - - - -
02/11:04pm 11.4 S 28 38 1015.7 - 15.2 - - - - - - -
02/11:00pm 11.6 S 29 37 1015.9 - 14.8 - - - - - - -
02/10:30pm 12.9 SSW 33 39 1015.7 - 14.8 - - - - - - -
02/10:00pm 12.9 SSW 35 43 1015.7 - 14.8 - - - - - - -
02/09:30pm 12.7 SSW 33 41 1015.7 - 14.8 - - - - - - -
02/09:02pm 13.0 SSW 34 44 1015.5 - 14.8 - - - - - - -
02/09:00pm 13.0 SSW 35 44 1015.5 - 14.8 - - - - - - -
02/08:30pm 12.6 S 37 47 1015.4 - 14.8 - - - - - - -
02/08:01pm 8.6 S 34 44 1015.7 - 14.4 - - - - - - -
02/08:00pm 10.1 SSW 35 44 1015.6 - 13.8 - - - - - - -
02/07:30pm 13.1 S 33 43 1014.7 - 13.2 - - - - - - -
02/07:10pm 12.8 SSW 34 44 1014.5 - 13.2 - - - - - - -
02/07:00pm 12.6 SSW 37 44 1014.5 - 13.2 - - - - - - -
02/06:49pm 13.1 S 34 44 1014.2 - 13.2 - - - - - - -
02/06:30pm 13.0 S 37 44 1014.0 - 13.2 - - - - - - -
02/06:09pm 13.2 S 37 47 1013.7 - 13.2 - - - - - - -
02/06:00pm 13.0 S 38 47 1013.3 - 13.2 - - - - - - -
02/05:32pm 12.9 S 36 46 1012.6 - 13.2 - - - - - - -
02/05:30pm 12.9 S 36 43 1012.6 - 13.2 - - - - - - -
02/05:04pm 13.1 S 37 47 1012.0 - 13.2 - - - - - - -
02/05:00pm 13.3 S 38 47 1011.9 - 13.2 - - - - - - -
02/04:30pm 13.3 S 37 47 1011.2 - 13.2 - - - - - - -
02/04:24pm 13.1 S 35 45 1011.1 - 13.2 - - - - - - -
02/04:00pm 12.8 S 37 45 1010.7 - 13.2 - - - - - - -
02/03:53pm 12.6 S 35 45 1010.6 - 13.2 - - - - - - -
02/03:30pm 12.2 S 38 47 1010.4 - 13.0 - - - - - - -
02/03:20pm 12.5 SSW 31 42 1010.1 - 13.0 - - - - - - -
02/03:00pm 11.9 SSW 29 35 1010.3 - 13.0 - - - - - - -
02/02:32pm 11.0 SSW 35 45 1010.2 - 11.6 - - - - - - -
02/02:30pm 10.9 SSW 36 45 1010.1 - 11.6 - - - - - - -
02/02:00pm 10.5 SSW 37 48 1009.6 - 9.2 - - - - - - -
02/01:57pm 11.7 SSW 36 48 1009.4 - 8.8 - - - - - - -
02/01:52pm 11.8 SSW 34 37 1009.5 - 8.6 - - - - - - -
02/01:47pm 11.3 SW 21 32 1009.8 - 8.6 - - - - - - -
02/01:46pm 11.4 SW 20 26 1009.9 - 8.6 - - - - - - -
02/01:37pm 11.3 WSW 18 28 1009.7 - 8.4 - - - - - - -
02/01:30pm 10.8 WSW 19 28 1009.9 - 7.4 - - - - - - -
02/01:29pm 11.0 SW 19 28 1009.9 - 7.0 - - - - - - -
02/01:00pm 11.1 SW 14 18 1010.0 - 5.4 - - - - - - -
02/12:30pm 10.5 WSW 21 28 1010.4 - 4.6 - - - - - - -
02/12:04pm 11.0 WSW 21 32 1010.5 - 2.8 - - - - - - -
02/12:00pm 11.2 SSW 28 32 1010.6 - 2.6 - - - - - - -
02/11:56am 11.2 SSW 29 32 1010.5 - 2.4 - - - - - - -
02/11:43am 11.0 WSW 23 34 1010.4 - 2.0 - - - - - - -
02/11:30am 11.5 SW 25 30 1010.0 - 0.6 - - - - - - -
02/11:00am 11.3 WSW 29 37 1010.0 - 0.6 - - - - - - -
02/10:33am 11.9 WSW 28 40 1009.7 - 0.0 - - - - - - -
02/10:30am 11.5 WSW 26 34 1009.7 - 0.0 - - - - - - -
02/10:00am 12.1 WSW 27 34 1009.9 - 0.0 - - - - - - -
02/09:30am 11.9 SW 30 37 1009.6 - 0.0 - - - - - - -
02/09:00am 11.1 WSW 24 32 1009.6 - 6.6 - - - - - - -
02/08:30am 11.6 WSW 23 29 1009.4 - 6.6 - - - - - - -
02/08:00am 11.4 WSW 25 31 1009.0 - 6.6 - - - - - - -
02/07:30am 11.2 W 23 30 1009.0 - 6.6 - - - - - - -
02/07:00am 11.0 W 24 29 1008.7 - 6.4 - - - - - - -
02/06:30am 10.9 W 23 31 1008.6 - 6.4 - - - - - - -
02/06:00am 10.9 W 21 27 1008.5 - 6.0 - - - - - - -
02/05:30am 10.8 W 19 25 1008.7 - 5.8 - - - - - - -
02/05:00am 10.8 W 17 21 1008.7 - 5.6 - - - - - - -
02/04:30am 10.6 W 17 21 1008.6 - 5.0 - - - - - - -
02/04:00am 10.8 W 18 23 1008.6 - 4.0 - - - - - - -
02/03:30am 10.7 W 16 20 1008.6 - 2.8 - - - - - - -
02/03:00am 11.0 W 14 17 1008.6 - 2.2 - - - - - - -
02/02:30am 11.3 WSW 14 17 1008.9 - 1.8 - - - - - - -
02/02:00am 11.6 WSW 14 18 1009.2 - 1.6 - - - - - - -
02/01:30am 12.1 SW 16 20 1009.4 - 0.8 - - - - - - -
02/01:00am 12.5 SW 16 20 1009.3 - 0.6 - - - - - - -
02/12:30am 12.5 WSW 13 16 1009.4 - 0.4 - - - - - - -
02/12:00am 12.5 WSW 12 14 1009.2 - 0.2 - - - - - - -
 
Date/Time
EST
Temp

°C
Wind Pressure Rain
since 9am
mm
Weather Cloud Vis
km
Sea
Height
m
Swell
Dir
 
Speed
knots
Gust
knots
hPa Trend Height
m
Period
s
Dir
01/11:30pm 12.7 WSW 12 14 1009.2 - 0.0 - - - - - - -
01/11:00pm 13.0 WSW 11 13 1009.4 - 0.0 - - - - - - -
01/10:30pm 12.9 WSW 12 15 1009.4 - 0.0 - - - - - - -
01/10:00pm 13.3 SW 19 23 1009.4 - 0.0 - - - - - - -
01/09:30pm 13.9 SW 24 28 1009.4 - 0.0 - - - - - - -
01/09:00pm 14.3 SW 26 31 1009.3 - 0.0 - - - - - - -
01/08:30pm 15.0 SW 29 35 1009.0 - 0.0 - - - - - - -
01/08:00pm 15.5 WSW 24 34 1008.5 - 0.0 - - - - - - -
01/07:53pm 15.9 SW 20 34 1007.7 - 0.0 - - - - - - -
01/07:49pm 16.5 W 16 23 1008.1 - 0.0 - - - - - - -
01/07:30pm 16.1 N 11 13 1006.9 - 0.0 - - - - - - -
01/07:00pm 15.8 NNE 12 15 1006.7 - 0.0 - - - - - - -
01/06:30pm 15.8 NNE 12 15 1006.9 - 0.0 - - - - - - -
01/06:00pm 16.1 N 12 15 1006.9 - 0.0 - - - - - - -
01/05:30pm 15.7 NNE 7 10 1006.8 - 0.0 - - - - - - -
01/05:00pm 15.7 N 11 13 1006.9 - 0.0 - - - - - - -
01/04:30pm 15.8 NNE 9 13 1006.9 - 0.0 - - - - - - -
01/04:00pm 16.5 NNE 6 7 1007.3 - 0.0 - - - - - - -
01/03:30pm 16.2 NE 9 13 1007.4 - 0.0 - - - - - - -
01/03:00pm 16.1 NNE 9 11 1007.5 - 0.0 Fine Cloudy 20 - - - -
01/02:30pm 16.3 NNE 11 14 1007.5 - 0.0 - - - - - - -
01/02:00pm 17.3 NE 9 10 1007.9 - 0.0 - - - - - - -
01/01:30pm 17.9 NE 10 13 1008.3 - 0.0 - - - - - - -
01/01:00pm 18.4 NNE 9 11 1008.7 - 0.0 - - - - - - -
01/12:30pm 17.3 NE 11 13 1008.8 - 0.0 - - - - - - -
01/12:00pm 16.8 NNE 9 11 1009.6 - 0.0 - - - - - - -
01/11:30am 16.0 NE 14 17 1009.9 - 0.0 - - - - - - -
01/11:00am 16.9 NE 10 13 1010.4 - 0.0 - - - - - - -
01/10:30am 18.2 NE 9 11 1010.7 - 0.0 - - - - - - -
01/10:00am 16.9 N 8 9 1011.0 - 0.0 - - - - - - -
01/09:30am 16.0 NNE 5 6 1011.5 - 0.0 - - - - - - -
01/09:00am 14.9 NE 4 5 1011.8 - 0.2 - - - - - - -
01/08:30am 15.2 N 1 3 1012.2 - 0.2 - - - - - - -
01/08:00am 13.7 NNE 4 5 1012.4 - 0.2 - - - - - - -
01/07:30am 12.4 N 5 6 1012.3 - 0.2 - - - - - - -
01/07:00am 12.6 NNE 7 8 1012.1 - 0.2 - - - - - - -
01/06:30am 12.4 N 8 10 1012.4 - 0.2 - - - - - - -
01/06:00am 13.0 N 9 13 1012.2 - 0.2 - - - - - - -
01/05:30am 12.5 N 10 12 1012.2 - 0.2 - - - - - - -
01/05:00am 13.1 NNE 11 13 1012.2 - 0.2 - - - - - - -
01/04:30am 13.2 NNE 10 13 1012.2 - 0.2 - - - - - - -
01/04:00am 13.0 NNE 11 13 1012.3 - 0.2 - - - - - - -
01/03:30am 12.7 NNE 11 13 1012.4 - 0.2 - - - - - - -
01/03:00am 12.6 N 10 12 1012.8 - 0.2 - - - - - - -
01/02:30am 12.8 NNE 8 9 1013.1 - 0.0 - - - - - - -
01/02:00am 12.4 N 9 11 1013.5 - 0.0 - - - - - - -
01/01:30am 12.5 N 9 12 1013.7 - 0.0 - - - - - - -
01/01:00am 12.8 N 10 13 1014.3 - 0.0 - - - - - - -
01/12:30am 12.5 N 8 12 1014.6 - 0.0 - - - - - - -
01/12:00am 13.6 NNE 14 18 1014.5 - 0.0 - - - - - - -
 
Date/Time
EST
Temp

°C
Wind Pressure Rain
since 9am
mm
Weather Cloud Vis
km
Sea
Height
m
Swell
Dir
 
Speed
knots
Gust
knots
hPa Trend Height
m
Period
s
Dir
31/11:30pm 13.7 NNE 14 16 1014.8 - 0.0 - - - - - - -
31/11:00pm 13.2 NNE 13 17 1015.2 - 0.0 - - - - - - -
31/10:30pm 12.6 N 10 13 1015.5 - 0.0 - - - - - - -
31/10:00pm 12.9 N 9 11 1016.0 - 0.0 - - - - - - -
31/09:30pm 12.9 N 10 12 1016.3 - 0.0 - - - - - - -
31/09:00pm 13.2 N 10 12 1016.5 - 0.0 - - - - - - -
31/08:30pm 13.3 NNE 12 15 1016.4 - 0.0 - - - - - - -
31/08:00pm 13.4 NNE 10 13 1016.3 - 0.0 - - - - - - -
31/07:30pm 13.5 NNE 12 14 1016.5 - 0.0 - - - - - - -
31/07:00pm 14.1 NNE 13 15 1016.4 - 0.0 - - - - - - -
31/06:30pm 14.3 NNE 13 16 1016.4 - 0.0 - - - - - - -
31/06:00pm 14.5 NNE 15 18 1016.2 - 0.0 - - - - - - -
31/05:30pm 14.8 NNE 14 17 1016.1 - 0.0 - - - - - - -
31/05:00pm 15.2 NNE 15 18 1016.0 - 0.0 - - - - - - -
31/04:30pm 15.5 NE 15 17 1016.0 - 0.0 - - - - - - -
31/04:00pm 15.8 NE 14 16 1016.1 - 0.0 - - - - - - -
31/03:30pm 16.1 NE 14 16 1016.2 - 0.0 - - - - - - -
31/03:00pm 16.3 NE 14 16 1016.5 - 0.0 - - - - - - -
31/02:30pm 16.6 NE 14 16 1016.7 - 0.0 - - - - - - -
31/02:00pm 16.7 NE 14 16 1016.9 - 0.0 - - - - - - -
31/01:30pm 16.7 NE 15 16 1017.1 - 0.0 - - - - - - -
31/01:00pm 16.5 NE 16 17 1017.4 - 0.0 - - - - - - -
31/12:30pm 16.7 NE 15 16 1017.9 - 0.0 - - - - - - -
31/12:00pm 16.3 NE 14 16 1018.3 - 0.0 - - - - - - -
31/11:30am 16.3 NE 14 16 1018.7 - 0.0 - - - - - - -
31/11:00am 16.1 NE 14 16 1019.0 - 0.0 - - - - - - -
31/10:30am 15.5 ENE 11 12 1019.5 - 0.0 - - - - - - -
31/10:00am 14.0 S 4 5 1020.0 - 0.0 - - - - - - -
31/09:30am 13.7 S 3 4 1020.2 - 0.0 - - - - - - -
31/09:00am 12.9 SW 4 5 1020.4 - 2.0 - - - - - - -
31/08:30am 13.4 E 3 4 1020.4 - 2.0 - - - - - - -
31/08:00am 12.9 NNW 2 4 1020.5 - 2.0 - - - - - - -

Other Formats:

Comma delimited format used in spreadsheet applications
http://www.bom.gov.au/fwo/IDV60701/IDV60701.94933.axf

JavaScript Object Notation format (JSON) in row-major order
http://www.bom.gov.au/fwo/IDV60701/IDV60701.94933.json